sensor_id;sensor_type;location;lat;lon;timestamp;pressure;altitude;pressure_sealevel;temperature;humidity
58245;BME280;44550;43.864;25.986;2022-12-20T00:01:16;103727.56;;;-1.19;83.80
58245;BME280;44550;43.864;25.986;2022-12-20T00:05:16;103720.63;;;-1.11;83.29
58245;BME280;44550;43.864;25.986;2022-12-20T00:09:17;103724.25;;;-1.09;83.10
58245;BME280;44550;43.864;25.986;2022-12-20T00:13:17;103729.38;;;-1.09;83.65
58245;BME280;44550;43.864;25.986;2022-12-20T00:17:16;103736.38;;;-1.00;83.10
58245;BME280;44550;43.864;25.986;2022-12-20T00:21:15;103741.50;;;-1.08;82.73
58245;BME280;44550;43.864;25.986;2022-12-20T00:25:17;103733.78;;;-1.00;82.71
58245;BME280;44550;43.864;25.986;2022-12-20T00:29:16;103732.13;;;-1.08;82.59
58245;BME280;44550;43.864;25.986;2022-12-20T00:33:15;103723.03;;;-1.22;82.58
58245;BME280;44550;43.864;25.986;2022-12-20T00:37:15;103717.13;;;-1.21;82.72
58245;BME280;44550;43.864;25.986;2022-12-20T00:41:17;103719.56;;;-1.13;82.50
58245;BME280;44550;43.864;25.986;2022-12-20T00:45:17;103721.59;;;-1.02;82.10
58245;BME280;44550;43.864;25.986;2022-12-20T00:49:16;103719.88;;;-1.10;82.40
58245;BME280;44550;43.864;25.986;2022-12-20T00:53:15;103714.78;;;-0.93;81.48
58245;BME280;44550;43.864;25.986;2022-12-20T00:57:24;103710.56;;;-0.92;81.02
58245;BME280;44550;43.864;25.986;2022-12-20T01:01:24;103698.63;;;-0.83;80.70
58245;BME280;44550;43.864;25.986;2022-12-20T01:05:25;103689.84;;;-0.94;81.09
58245;BME280;44550;43.864;25.986;2022-12-20T01:09:25;103696.34;;;-0.98;81.40
58245;BME280;44550;43.864;25.986;2022-12-20T01:13:27;103693.34;;;-0.85;81.78
58245;BME280;44550;43.864;25.986;2022-12-20T01:17:26;103687.78;;;-0.81;80.15
58245;BME280;44550;43.864;25.986;2022-12-20T01:21:26;103685.78;;;-0.92;80.52
58245;BME280;44550;43.864;25.986;2022-12-20T01:25:25;103682.59;;;-0.98;80.05
58245;BME280;44550;43.864;25.986;2022-12-20T01:29:27;103686.53;;;-1.02;80.66
58245;BME280;44550;43.864;25.986;2022-12-20T01:33:26;103683.16;;;-1.09;80.85
58245;BME280;44550;43.864;25.986;2022-12-20T01:37:25;103669.09;;;-1.13;81.26
58245;BME280;44550;43.864;25.986;2022-12-20T01:41:25;103663.66;;;-1.16;81.18
58245;BME280;44550;43.864;25.986;2022-12-20T01:45:28;103661.88;;;-1.08;81.46
58245;BME280;44550;43.864;25.986;2022-12-20T01:49:29;103658.56;;;-1.07;81.64
58245;BME280;44550;43.864;25.986;2022-12-20T01:53:29;103640.91;;;-1.04;81.51
58245;BME280;44550;43.864;25.986;2022-12-20T01:57:31;103636.81;;;-1.11;80.78
58245;BME280;44550;43.864;25.986;2022-12-20T02:01:34;103643.28;;;-1.14;81.20
58245;BME280;44550;43.864;25.986;2022-12-20T02:05:35;103639.22;;;-1.04;81.20
58245;BME280;44550;43.864;25.986;2022-12-20T02:09:34;103630.13;;;-1.26;nan
58245;BME280;44550;43.864;25.986;2022-12-20T02:13:39;103621.81;;;-1.32;81.71
58245;BME280;44550;43.864;25.986;2022-12-20T02:17:47;103614.53;;;-1.36;82.21
58245;BME280;44550;43.864;25.986;2022-12-20T02:21:49;103604.78;;;-1.14;82.07
58245;BME280;44550;43.864;25.986;2022-12-20T02:25:56;103596.19;;;-1.15;81.89
58245;BME280;44550;43.864;25.986;2022-12-20T02:30:08;103586.63;;;-1.16;82.27
58245;BME280;44550;43.864;25.986;2022-12-20T02:34:07;103583.03;;;-1.09;81.92
58245;BME280;44550;43.864;25.986;2022-12-20T02:38:24;103586.03;;;-1.13;81.84
58245;BME280;44550;43.864;25.986;2022-12-20T02:42:23;103584.94;;;-1.33;82.62
58245;BME280;44550;43.864;25.986;2022-12-20T02:46:26;103584.06;;;-1.16;82.34
58245;BME280;44550;43.864;25.986;2022-12-20T02:50:27;103581.38;;;-1.09;81.99
58245;BME280;44550;43.864;25.986;2022-12-20T02:54:28;103578.34;;;-1.22;82.30
58245;BME280;44550;43.864;25.986;2022-12-20T02:58:28;103580.44;;;-1.09;82.30
58245;BME280;44550;43.864;25.986;2022-12-20T03:02:32;103573.94;;;-1.40;82.76
58245;BME280;44550;43.864;25.986;2022-12-20T03:06:55;103562.75;;;-1.41;83.30
58245;BME280;44550;43.864;25.986;2022-12-20T03:10:55;103564.63;;;-1.73;84.78
58245;BME280;44550;43.864;25.986;2022-12-20T03:14:58;103567.31;;;-1.80;85.46
58245;BME280;44550;43.864;25.986;2022-12-20T03:19:00;103566.25;;;-1.82;85.68
58245;BME280;44550;43.864;25.986;2022-12-20T03:22:59;103559.34;;;-1.75;85.27
58245;BME280;44550;43.864;25.986;2022-12-20T03:26:58;103556.41;;;-1.95;85.74
58245;BME280;44550;43.864;25.986;2022-12-20T03:31:00;103562.88;;;-1.99;86.35
58245;BME280;44550;43.864;25.986;2022-12-20T03:35:04;103562.78;;;-1.92;86.48
58245;BME280;44550;43.864;25.986;2022-12-20T03:39:03;103565.41;;;-2.07;86.85
58245;BME280;44550;43.864;25.986;2022-12-20T03:43:03;103560.47;;;-1.97;87.09
58245;BME280;44550;43.864;25.986;2022-12-20T03:47:02;103555.72;;;-2.10;87.14
58245;BME280;44550;43.864;25.986;2022-12-20T03:51:04;103560.22;;;-2.16;87.50
58245;BME280;44550;43.864;25.986;2022-12-20T03:55:04;103560.41;;;-2.06;87.44
58245;BME280;44550;43.864;25.986;2022-12-20T03:59:06;103558.19;;;-2.03;87.39
58245;BME280;44550;43.864;25.986;2022-12-20T04:03:05;103558.41;;;-1.84;87.20
58245;BME280;44550;43.864;25.986;2022-12-20T04:07:06;103546.03;;;-1.79;86.45
58245;BME280;44550;43.864;25.986;2022-12-20T04:11:06;103541.38;;;-1.83;86.11
58245;BME280;44550;43.864;25.986;2022-12-20T04:15:15;103535.91;;;-1.95;87.00
58245;BME280;44550;43.864;25.986;2022-12-20T04:19:15;103531.28;;;-1.82;86.96
58245;BME280;44550;43.864;25.986;2022-12-20T04:23:17;103529.25;;;-1.93;86.97
58245;BME280;44550;43.864;25.986;2022-12-20T04:27:17;103516.44;;;-2.02;87.33
58245;BME280;44550;43.864;25.986;2022-12-20T04:31:17;103522.34;;;-2.19;87.85
58245;BME280;44550;43.864;25.986;2022-12-20T04:35:21;103528.25;;;-2.20;88.33
58245;BME280;44550;43.864;25.986;2022-12-20T04:39:22;103514.91;;;-2.08;87.84
58245;BME280;44550;43.864;25.986;2022-12-20T04:43:25;103510.69;;;-1.99;87.35
58245;BME280;44550;43.864;25.986;2022-12-20T04:47:25;103519.75;;;-1.94;87.16
58245;BME280;44550;43.864;25.986;2022-12-20T04:51:24;103527.78;;;-1.82;87.02
58245;BME280;44550;43.864;25.986;2022-12-20T04:55:25;103526.47;;;-1.70;86.88
58245;BME280;44550;43.864;25.986;2022-12-20T04:59:26;103535.13;;;-1.52;86.00
58245;BME280;44550;43.864;25.986;2022-12-20T05:03:25;103539.19;;;-1.54;85.71
58245;BME280;44550;43.864;25.986;2022-12-20T05:07:25;103540.63;;;-1.74;85.97
58245;BME280;44550;43.864;25.986;2022-12-20T05:11:27;103541.72;;;-1.72;86.07
58245;BME280;44550;43.864;25.986;2022-12-20T05:15:26;103544.09;;;-1.82;86.76
58245;BME280;44550;43.864;25.986;2022-12-20T05:19:27;103525.56;;;-1.71;86.12
58245;BME280;44550;43.864;25.986;2022-12-20T05:23:26;103527.53;;;-1.59;86.15
58245;BME280;44550;43.864;25.986;2022-12-20T05:27:46;103537.25;;;-1.90;86.67
58245;BME280;44550;43.864;25.986;2022-12-20T05:31:45;103536.81;;;-1.95;87.85
58245;BME280;44550;43.864;25.986;2022-12-20T05:35:47;103528.50;;;-1.92;87.83
58245;BME280;44550;43.864;25.986;2022-12-20T05:39:46;103526.06;;;-1.99;88.62
58245;BME280;44550;43.864;25.986;2022-12-20T05:43:48;103519.00;;;-2.02;88.89
58245;BME280;44550;43.864;25.986;2022-12-20T05:47:47;103514.97;;;-2.24;89.36
58245;BME280;44550;43.864;25.986;2022-12-20T05:51:46;103506.66;;;-2.30;90.33
58245;BME280;44550;43.864;25.986;2022-12-20T05:55:47;103503.63;;;-2.35;90.79
58245;BME280;44550;43.864;25.986;2022-12-20T05:59:49;103491.22;;;-2.39;91.19
58245;BME280;44550;43.864;25.986;2022-12-20T06:03:49;103488.06;;;-2.37;91.53
58245;BME280;44550;43.864;25.986;2022-12-20T06:07:50;103493.19;;;-2.37;91.25
58245;BME280;44550;43.864;25.986;2022-12-20T06:11:53;103495.94;;;-2.35;91.52
58245;BME280;44550;43.864;25.986;2022-12-20T06:15:53;103490.25;;;-2.24;91.41
58245;BME280;44550;43.864;25.986;2022-12-20T06:19:53;103494.78;;;-2.21;91.12
58245;BME280;44550;43.864;25.986;2022-12-20T06:23:52;103502.03;;;-2.17;91.55
58245;BME280;44550;43.864;25.986;2022-12-20T06:27:52;103505.94;;;-2.12;91.11
58245;BME280;44550;43.864;25.986;2022-12-20T06:31:53;103504.72;;;-2.16;90.15
58245;BME280;44550;43.864;25.986;2022-12-20T06:35:52;103491.91;;;-2.16;90.54
58245;BME280;44550;43.864;25.986;2022-12-20T06:39:51;103507.22;;;-2.00;90.27
58245;BME280;44550;43.864;25.986;2022-12-20T06:43:52;103503.06;;;-2.24;90.74
58245;BME280;44550;43.864;25.986;2022-12-20T06:47:53;103489.72;;;-2.04;90.79
58245;BME280;44550;43.864;25.986;2022-12-20T06:51:54;103488.13;;;-1.77;89.44
58245;BME280;44550;43.864;25.986;2022-12-20T06:55:54;103485.75;;;-1.58;88.45
58245;BME280;44550;43.864;25.986;2022-12-20T06:59:53;103472.78;;;-1.16;87.15
58245;BME280;44550;43.864;25.986;2022-12-20T07:03:54;103479.97;;;-0.78;85.77
58245;BME280;44550;43.864;25.986;2022-12-20T07:07:53;103486.53;;;-1.33;85.41
58245;BME280;44550;43.864;25.986;2022-12-20T07:11:53;103488.91;;;-1.61;87.84
58245;BME280;44550;43.864;25.986;2022-12-20T07:15:56;103485.84;;;-1.83;88.63
58245;BME280;44550;43.864;25.986;2022-12-20T07:19:57;103488.16;;;-1.69;89.42
58245;BME280;44550;43.864;25.986;2022-12-20T07:23:57;103492.25;;;-1.36;89.69
58245;BME280;44550;43.864;25.986;2022-12-20T07:32:33;103478.06;;;-1.24;87.52
58245;BME280;44550;43.864;25.986;2022-12-20T07:36:43;103463.88;;;-1.55;88.10
58245;BME280;44550;43.864;25.986;2022-12-20T07:40:42;103476.41;;;-1.58;88.65
58245;BME280;44550;43.864;25.986;2022-12-20T07:44:41;103471.25;;;-1.49;88.30
58245;BME280;44550;43.864;25.986;2022-12-20T07:48:42;103478.69;;;-1.35;87.74
58245;BME280;44550;43.864;25.986;2022-12-20T07:52:44;103483.31;;;-0.96;86.55
58245;BME280;44550;43.864;25.986;2022-12-20T07:56:46;103484.53;;;-0.84;85.88
58245;BME280;44550;43.864;25.986;2022-12-20T08:00:45;103486.63;;;-0.62;85.12
58245;BME280;44550;43.864;25.986;2022-12-20T08:04:44;103490.09;;;-0.71;84.76
58245;BME280;44550;43.864;25.986;2022-12-20T08:08:48;103482.06;;;-0.56;83.50
58245;BME280;44550;43.864;25.986;2022-12-20T08:12:49;103479.31;;;-0.49;83.16
58245;BME280;44550;43.864;25.986;2022-12-20T08:16:49;103480.34;;;-0.47;83.59
58245;BME280;44550;43.864;25.986;2022-12-20T08:20:48;103480.81;;;-0.06;81.76
58245;BME280;44550;43.864;25.986;2022-12-20T08:24:49;103472.81;;;0.10;81.17
58245;BME280;44550;43.864;25.986;2022-12-20T08:28:49;103466.38;;;0.51;79.14
58245;BME280;44550;43.864;25.986;2022-12-20T08:32:48;103467.88;;;0.30;79.23
58245;BME280;44550;43.864;25.986;2022-12-20T08:36:47;103462.94;;;-0.05;79.64
58245;BME280;44550;43.864;25.986;2022-12-20T08:40:48;103463.19;;;0.07;80.67
58245;BME280;44550;43.864;25.986;2022-12-20T08:44:48;103453.13;;;0.38;79.41
58245;BME280;44550;43.864;25.986;2022-12-20T08:48:46;103447.34;;;0.97;77.84
58245;BME280;44550;43.864;25.986;2022-12-20T08:52:46;103444.88;;;1.28;76.22
58245;BME280;44550;43.864;25.986;2022-12-20T08:56:47;103431.66;;;1.33;75.23
58245;BME280;44550;43.864;25.986;2022-12-20T09:00:46;103428.38;;;1.26;74.57
58245;BME280;44550;43.864;25.986;2022-12-20T09:04:46;103426.16;;;1.10;76.06
58245;BME280;44550;43.864;25.986;2022-12-20T09:08:45;103424.44;;;0.81;76.91
58245;BME280;44550;43.864;25.986;2022-12-20T09:12:47;103414.34;;;0.93;75.75
58245;BME280;44550;43.864;25.986;2022-12-20T09:16:46;103416.31;;;0.77;76.66
58245;BME280;44550;43.864;25.986;2022-12-20T09:20:45;103411.25;;;0.68;77.42
58245;BME280;44550;43.864;25.986;2022-12-20T09:24:44;103401.97;;;0.99;76.25
58245;BME280;44550;43.864;25.986;2022-12-20T09:28:47;103392.88;;;0.55;76.29
58245;BME280;44550;43.864;25.986;2022-12-20T09:32:46;103391.97;;;0.73;75.92
58245;BME280;44550;43.864;25.986;2022-12-20T09:36:45;103382.97;;;0.78;76.05
58245;BME280;44550;43.864;25.986;2022-12-20T09:40:45;103372.00;;;0.52;76.82
58245;BME280;44550;43.864;25.986;2022-12-20T09:44:47;103365.00;;;0.69;76.85
58245;BME280;44550;43.864;25.986;2022-12-20T09:48:47;103366.41;;;0.66;76.32
58245;BME280;44550;43.864;25.986;2022-12-20T09:52:59;103353.09;;;0.51;77.33
58245;BME280;44550;43.864;25.986;2022-12-20T09:57:20;103341.31;;;0.63;77.73
58245;BME280;44550;43.864;25.986;2022-12-20T10:01:26;103327.59;;;0.73;77.37
58245;BME280;44550;43.864;25.986;2022-12-20T10:05:35;103318.75;;;0.32;79.03
58245;BME280;44550;43.864;25.986;2022-12-20T10:09:54;103316.16;;;0.51;78.42
58245;BME280;44550;43.864;25.986;2022-12-20T10:13:58;103300.56;;;0.20;78.81
58245;BME280;44550;43.864;25.986;2022-12-20T10:18:09;103293.63;;;0.29;79.35
58245;BME280;44550;43.864;25.986;2022-12-20T10:22:13;103283.88;;;0.54;79.54
58245;BME280;44550;43.864;25.986;2022-12-20T10:26:15;103274.88;;;0.30;79.22
58245;BME280;44550;43.864;25.986;2022-12-20T10:30:15;103269.13;;;0.43;80.10
58245;BME280;44550;43.864;25.986;2022-12-20T10:34:17;103262.16;;;0.13;81.13
58245;BME280;44550;43.864;25.986;2022-12-20T10:38:16;103255.44;;;0.23;81.54
58245;BME280;44550;43.864;25.986;2022-12-20T10:42:24;103247.69;;;0.63;80.20
58245;BME280;44550;43.864;25.986;2022-12-20T10:46:27;103233.78;;;0.90;78.87
58245;BME280;44550;43.864;25.986;2022-12-20T10:50:35;103226.06;;;1.00;78.17
58245;BME280;44550;43.864;25.986;2022-12-20T10:54:34;103220.13;;;1.01;77.14
58245;BME280;44550;43.864;25.986;2022-12-20T10:58:34;103210.59;;;1.00;77.77
58245;BME280;44550;43.864;25.986;2022-12-20T11:02:34;103204.56;;;1.20;76.77
58245;BME280;44550;43.864;25.986;2022-12-20T11:06:42;103202.09;;;1.22;77.12
58245;BME280;44550;43.864;25.986;2022-12-20T11:10:42;103194.88;;;1.28;77.13
58245;BME280;44550;43.864;25.986;2022-12-20T11:14:43;103185.19;;;1.56;76.64
58245;BME280;44550;43.864;25.986;2022-12-20T11:18:42;103180.69;;;1.43;76.46
58245;BME280;44550;43.864;25.986;2022-12-20T11:22:53;103176.19;;;1.40;76.84
58245;BME280;44550;43.864;25.986;2022-12-20T11:26:57;103160.56;;;1.39;78.32
58245;BME280;44550;43.864;25.986;2022-12-20T11:31:01;103167.38;;;1.59;76.90
58245;BME280;44550;43.864;25.986;2022-12-20T11:35:08;103151.66;;;1.46;76.86
58245;BME280;44550;43.864;25.986;2022-12-20T11:39:12;103151.78;;;1.57;76.57
58245;BME280;44550;43.864;25.986;2022-12-20T11:43:16;103144.69;;;1.55;76.53
58245;BME280;44550;43.864;25.986;2022-12-20T11:47:30;103130.56;;;1.92;76.00
58245;BME280;44550;43.864;25.986;2022-12-20T11:51:34;103126.19;;;2.35;73.59
58245;BME280;44550;43.864;25.986;2022-12-20T11:55:40;103120.25;;;2.36;72.94
58245;BME280;44550;43.864;25.986;2022-12-20T11:59:41;103106.44;;;2.35;73.67
58245;BME280;44550;43.864;25.986;2022-12-20T12:03:43;103106.03;;;1.87;74.92
58245;BME280;44550;43.864;25.986;2022-12-20T12:07:45;103075.34;;;1.90;74.88
58245;BME280;44550;43.864;25.986;2022-12-20T12:11:49;103092.28;;;2.30;74.11
58245;BME280;44550;43.864;25.986;2022-12-20T12:16:07;103095.00;;;2.32;74.27
58245;BME280;44550;43.864;25.986;2022-12-20T12:20:22;103083.22;;;2.35;72.78
58245;BME280;44550;43.864;25.986;2022-12-20T12:24:22;103078.28;;;2.39;72.82
58245;BME280;44550;43.864;25.986;2022-12-20T12:28:25;103076.72;;;2.41;71.85
58245;BME280;44550;43.864;25.986;2022-12-20T12:32:26;103072.44;;;2.41;72.49
58245;BME280;44550;43.864;25.986;2022-12-20T12:36:36;103062.59;;;2.47;72.50
58245;BME280;44550;43.864;25.986;2022-12-20T12:40:49;103045.78;;;2.52;72.06
58245;BME280;44550;43.864;25.986;2022-12-20T12:44:57;103045.97;;;2.44;72.00
58245;BME280;44550;43.864;25.986;2022-12-20T12:48:58;103047.97;;;2.70;72.27
58245;BME280;44550;43.864;25.986;2022-12-20T12:53:02;103045.75;;;2.86;71.35
58245;BME280;44550;43.864;25.986;2022-12-20T12:57:06;103038.41;;;2.80;71.53
58245;BME280;44550;43.864;25.986;2022-12-20T13:01:10;103033.28;;;2.92;71.61
58245;BME280;44550;43.864;25.986;2022-12-20T13:05:30;103030.47;;;2.89;71.38
58245;BME280;44550;43.864;25.986;2022-12-20T13:09:41;103033.50;;;2.83;72.27
58245;BME280;44550;43.864;25.986;2022-12-20T13:13:42;103030.47;;;2.89;72.00
58245;BME280;44550;43.864;25.986;2022-12-20T13:17:46;103024.31;;;2.99;72.09
58245;BME280;44550;43.864;25.986;2022-12-20T13:21:47;103018.25;;;2.98;72.07
58245;BME280;44550;43.864;25.986;2022-12-20T13:25:51;103013.31;;;3.01;72.36
58245;BME280;44550;43.864;25.986;2022-12-20T13:29:52;103004.97;;;2.94;72.44
58245;BME280;44550;43.864;25.986;2022-12-20T13:33:53;103006.44;;;2.78;72.94
58245;BME280;44550;43.864;25.986;2022-12-20T13:37:53;103005.81;;;2.59;73.81
58245;BME280;44550;43.864;25.986;2022-12-20T13:42:05;102999.00;;;2.83;73.81
58245;BME280;44550;43.864;25.986;2022-12-20T13:46:11;103004.06;;;2.93;73.44
58245;BME280;44550;43.864;25.986;2022-12-20T13:54:34;102987.22;;;2.98;72.78
58245;BME280;44550;43.864;25.986;2022-12-20T13:58:38;102979.56;;;3.00;73.32
58245;BME280;44550;43.864;25.986;2022-12-20T14:02:40;102974.31;;;2.98;73.68
58245;BME280;44550;43.864;25.986;2022-12-20T14:06:40;102980.59;;;2.90;74.09
58245;BME280;44550;43.864;25.986;2022-12-20T14:10:41;102972.25;;;2.71;75.00
58245;BME280;44550;43.864;25.986;2022-12-20T14:14:41;102968.53;;;2.55;76.50
58245;BME280;44550;43.864;25.986;2022-12-20T14:18:41;102969.19;;;2.53;76.86
58245;BME280;44550;43.864;25.986;2022-12-20T14:22:48;102958.84;;;2.41;77.38
58245;BME280;44550;43.864;25.986;2022-12-20T14:26:59;102953.59;;;2.06;78.58
58245;BME280;44550;43.864;25.986;2022-12-20T14:30:58;102949.88;;;2.02;79.32
58245;BME280;44550;43.864;25.986;2022-12-20T14:34:59;102947.53;;;2.05;79.45
58245;BME280;44550;43.864;25.986;2022-12-20T14:38:58;102943.69;;;2.00;79.47
58245;BME280;44550;43.864;25.986;2022-12-20T14:43:00;102941.75;;;1.98;79.47
58245;BME280;44550;43.864;25.986;2022-12-20T14:47:15;102931.75;;;1.91;79.50
58245;BME280;44550;43.864;25.986;2022-12-20T14:51:18;102924.81;;;1.90;79.60
58245;BME280;44550;43.864;25.986;2022-12-20T14:55:18;102922.41;;;1.81;80.00
58245;BME280;44550;43.864;25.986;2022-12-20T14:59:24;102917.97;;;1.90;79.96
58245;BME280;44550;43.864;25.986;2022-12-20T15:03:24;102917.69;;;2.09;79.47
58245;BME280;44550;43.864;25.986;2022-12-20T15:07:29;102904.63;;;2.41;78.44
58245;BME280;44550;43.864;25.986;2022-12-20T15:11:29;102907.31;;;2.54;77.57
58245;BME280;44550;43.864;25.986;2022-12-20T15:15:30;102898.16;;;2.81;76.84
58245;BME280;44550;43.864;25.986;2022-12-20T15:19:31;102900.25;;;2.99;75.74
58245;BME280;44550;43.864;25.986;2022-12-20T15:23:40;102900.25;;;2.99;74.75
58245;BME280;44550;43.864;25.986;2022-12-20T15:27:48;102886.56;;;2.88;75.26
58245;BME280;44550;43.864;25.986;2022-12-20T15:32:03;102893.09;;;2.95;75.18
58245;BME280;44550;43.864;25.986;2022-12-20T15:36:27;102888.22;;;2.99;74.97
58245;BME280;44550;43.864;25.986;2022-12-20T15:40:35;102886.09;;;3.05;74.96
58245;BME280;44550;43.864;25.986;2022-12-20T15:44:56;102888.53;;;3.16;74.67
58245;BME280;44550;43.864;25.986;2022-12-20T15:49:18;102878.88;;;3.25;74.62
58245;BME280;44550;43.864;25.986;2022-12-20T15:53:22;102887.28;;;3.22;74.44
58245;BME280;44550;43.864;25.986;2022-12-20T15:57:26;102884.09;;;2.54;77.13
58245;BME280;44550;43.864;25.986;2022-12-20T16:01:34;102894.06;;;2.38;78.11
58245;BME280;44550;43.864;25.986;2022-12-20T16:05:39;102892.50;;;1.95;79.90
58245;BME280;44550;43.864;25.986;2022-12-20T16:09:40;102892.56;;;1.73;80.79
58245;BME280;44550;43.864;25.986;2022-12-20T16:13:39;102897.13;;;1.43;81.82
58245;BME280;44550;43.864;25.986;2022-12-20T16:17:40;102901.22;;;1.19;83.38
58245;BME280;44550;43.864;25.986;2022-12-20T16:21:43;102888.66;;;1.12;84.29
58245;BME280;44550;43.864;25.986;2022-12-20T16:25:44;102885.56;;;1.16;84.29
58245;BME280;44550;43.864;25.986;2022-12-20T16:29:43;102884.69;;;1.05;84.48
58245;BME280;44550;43.864;25.986;2022-12-20T16:33:42;102886.97;;;1.12;84.68
58245;BME280;44550;43.864;25.986;2022-12-20T16:37:43;102872.44;;;1.13;84.53
58245;BME280;44550;43.864;25.986;2022-12-20T16:41:43;102876.53;;;1.11;84.51
58245;BME280;44550;43.864;25.986;2022-12-20T16:45:43;102872.59;;;1.04;84.87
58245;BME280;44550;43.864;25.986;2022-12-20T16:49:42;102871.09;;;1.18;84.79
58245;BME280;44550;43.864;25.986;2022-12-20T16:53:51;102868.09;;;1.02;84.56
58245;BME280;44550;43.864;25.986;2022-12-20T16:58:11;102876.69;;;0.80;85.80
58245;BME280;44550;43.864;25.986;2022-12-20T17:02:15;102868.75;;;0.67;87.01
58245;BME280;44550;43.864;25.986;2022-12-20T17:06:19;102870.09;;;0.41;87.53
58245;BME280;44550;43.864;25.986;2022-12-20T17:10:20;102869.31;;;0.42;88.20
58245;BME280;44550;43.864;25.986;2022-12-20T17:14:19;102870.19;;;0.43;88.09
58245;BME280;44550;43.864;25.986;2022-12-20T17:18:21;102869.59;;;0.25;88.92
58245;BME280;44550;43.864;25.986;2022-12-20T17:22:20;102869.69;;;0.47;88.67
58245;BME280;44550;43.864;25.986;2022-12-20T17:26:22;102867.75;;;0.55;87.75
58245;BME280;44550;43.864;25.986;2022-12-20T17:30:22;102858.59;;;0.58;86.76
58245;BME280;44550;43.864;25.986;2022-12-20T17:34:23;102853.22;;;0.45;86.65
58245;BME280;44550;43.864;25.986;2022-12-20T17:38:25;102860.50;;;-0.02;88.20
58245;BME280;44550;43.864;25.986;2022-12-20T17:42:26;102849.78;;;-0.48;89.90
58245;BME280;44550;43.864;25.986;2022-12-20T17:46:28;102850.31;;;-0.31;90.67
58245;BME280;44550;43.864;25.986;2022-12-20T17:50:27;102850.69;;;-0.27;90.26
58245;BME280;44550;43.864;25.986;2022-12-20T17:54:27;102846.69;;;-0.54;91.41
58245;BME280;44550;43.864;25.986;2022-12-20T17:58:36;102842.97;;;-0.47;90.78
58245;BME280;44550;43.864;25.986;2022-12-20T18:02:36;102841.81;;;-0.61;90.96
58245;BME280;44550;43.864;25.986;2022-12-20T18:06:36;102834.72;;;-0.63;91.47
58245;BME280;44550;43.864;25.986;2022-12-20T18:10:35;102829.31;;;-0.66;91.20
58245;BME280;44550;43.864;25.986;2022-12-20T18:14:37;102831.50;;;-0.81;91.74
58245;BME280;44550;43.864;25.986;2022-12-20T18:18:36;102822.66;;;-0.75;91.99
58245;BME280;44550;43.864;25.986;2022-12-20T18:22:35;102812.66;;;-0.61;91.32
58245;BME280;44550;43.864;25.986;2022-12-20T18:26:35;102804.56;;;-0.76;91.58
58245;BME280;44550;43.864;25.986;2022-12-20T18:30:36;102795.53;;;-0.81;91.67
58245;BME280;44550;43.864;25.986;2022-12-20T18:34:37;102792.31;;;-0.99;92.56
58245;BME280;44550;43.864;25.986;2022-12-20T18:38:36;102789.59;;;-1.01;93.02
58245;BME280;44550;43.864;25.986;2022-12-20T18:42:36;102785.84;;;-1.04;93.01
58245;BME280;44550;43.864;25.986;2022-12-20T18:46:52;102774.53;;;-1.06;93.23
58245;BME280;44550;43.864;25.986;2022-12-20T18:50:51;102785.81;;;-1.14;93.40
58245;BME280;44550;43.864;25.986;2022-12-20T18:54:50;102772.34;;;-1.22;93.57
58245;BME280;44550;43.864;25.986;2022-12-20T18:58:49;102775.84;;;-1.11;93.67
58245;BME280;44550;43.864;25.986;2022-12-20T19:02:50;102778.06;;;-0.96;93.38
58245;BME280;44550;43.864;25.986;2022-12-20T19:06:54;102776.78;;;-0.80;92.65
58245;BME280;44550;43.864;25.986;2022-12-20T19:10:56;102776.41;;;-0.75;91.99
58245;BME280;44550;43.864;25.986;2022-12-20T19:14:56;102776.28;;;-0.76;92.11
58245;BME280;44550;43.864;25.986;2022-12-20T19:18:57;102773.94;;;-0.83;91.81
58245;BME280;44550;43.864;25.986;2022-12-20T19:22:56;102773.31;;;-0.91;92.43
58245;BME280;44550;43.864;25.986;2022-12-20T19:26:56;102775.59;;;-0.94;92.42
58245;BME280;44550;43.864;25.986;2022-12-20T19:30:55;102760.34;;;-0.92;92.56
58245;BME280;44550;43.864;25.986;2022-12-20T19:34:57;102760.97;;;-0.95;93.31
58245;BME280;44550;43.864;25.986;2022-12-20T19:39:17;102755.44;;;-1.00;93.67
58245;BME280;44550;43.864;25.986;2022-12-20T19:43:17;102751.34;;;-0.98;93.55
58245;BME280;44550;43.864;25.986;2022-12-20T19:47:17;102750.72;;;-0.95;93.63
58245;BME280;44550;43.864;25.986;2022-12-20T19:51:18;102758.00;;;-1.00;93.70
58245;BME280;44550;43.864;25.986;2022-12-20T19:55:18;102757.38;;;-0.87;93.85
58245;BME280;44550;43.864;25.986;2022-12-20T19:59:17;102750.34;;;-0.79;93.25
58245;BME280;44550;43.864;25.986;2022-12-20T20:03:17;102744.53;;;-0.97;93.51
58245;BME280;44550;43.864;25.986;2022-12-20T20:07:19;102745.81;;;-1.02;94.08
58245;BME280;44550;43.864;25.986;2022-12-20T20:11:18;102746.53;;;-1.24;94.58
58245;BME280;44550;43.864;25.986;2022-12-20T20:15:17;102743.63;;;-1.08;95.02
58245;BME280;44550;43.864;25.986;2022-12-20T20:19:16;102723.97;;;-0.97;94.87
58245;BME280;44550;43.864;25.986;2022-12-20T20:23:18;102727.88;;;-0.82;94.29
58245;BME280;44550;43.864;25.986;2022-12-20T20:27:17;102725.56;;;-0.79;93.70
58245;BME280;44550;43.864;25.986;2022-12-20T20:31:17;102718.13;;;-0.86;93.73
58245;BME280;44550;43.864;25.986;2022-12-20T20:35:16;102706.63;;;-1.00;94.25
58245;BME280;44550;43.864;25.986;2022-12-20T20:39:18;102716.44;;;-0.85;94.19
58245;BME280;44550;43.864;25.986;2022-12-20T20:43:17;102709.88;;;-0.82;93.96
58245;BME280;44550;43.864;25.986;2022-12-20T20:47:16;102698.72;;;-0.72;93.82
58245;BME280;44550;43.864;25.986;2022-12-20T20:51:15;102687.41;;;-0.74;93.74
58245;BME280;44550;43.864;25.986;2022-12-20T20:55:17;102697.16;;;-0.70;93.57
58245;BME280;44550;43.864;25.986;2022-12-20T20:59:16;102683.81;;;-0.56;93.23
58245;BME280;44550;43.864;25.986;2022-12-20T21:03:16;102685.59;;;-0.55;93.12
58245;BME280;44550;43.864;25.986;2022-12-20T21:07:18;102672.38;;;-0.49;93.02